Time;durP1;ratioP1;P1;durP2;ratioP2;P2;SDS_P1;SDS_P2;PMS_P1;PMS_P2;Temp;Humidity;BMP_temperature;BMP_pressure;BME280_temperature;BME280_humidity;BME280_pressure;Samples;Min_cycle;Max_cycle;Signal;HPM_P1;HPM_P2
2023/04/17 00:01:31;;;;;;;30.33;16.63;;;;;;;8.43;100.00;102410.63;5115713;28;20034;-93
2023/04/17 00:04:09;;;;;;;32.03;16.85;;;;;;;8.45;100.00;102410.50;5116503;28;20031;-93
2023/04/17 00:09:33;;;;;;;33.53;17.17;;;;;;;8.54;100.00;102414.91;5116896;28;20051;-93
2023/04/17 00:12:04;;;;;;;32.13;17.30;;;;;;;8.46;100.00;102407.63;5116281;28;20066;-93
2023/04/17 00:14:47;;;;;;;37.38;18.85;;;;;;;8.53;100.00;102416.78;5116297;28;20201;-93
2023/04/17 00:17:15;;;;;;;35.15;16.55;;;;;;;8.50;100.00;102418.94;5117039;28;20042;-92
2023/04/17 00:19:43;;;;;;;34.72;17.77;;;;;;;8.47;100.00;102413.88;5115648;28;20024;-93
2023/04/17 00:22:18;;;;;;;36.20;17.30;;;;;;;8.41;100.00;102402.69;5115622;28;20395;-93
2023/04/17 00:24:44;;;;;;;32.90;17.75;;;;;;;8.41;100.00;102402.69;5115358;28;20494;-93
2023/04/17 00:27:12;;;;;;;33.88;18.02;;;;;;;8.40;100.00;102398.25;5116907;28;20122;-93
2023/04/17 00:29:38;;;;;;;37.15;19.17;;;;;;;8.36;100.00;102399.59;5115614;28;20088;-92
2023/04/17 00:32:04;;;;;;;33.58;18.30;;;;;;;8.35;100.00;102391.66;5115534;28;20031;-93
2023/04/17 00:34:42;;;;;;;;;;;;;;;;;;;;;
2023/04/17 00:37:08;;;;;;;35.67;17.23;;;;;;;8.33;100.00;102390.97;5117288;28;20054;-93
2023/04/17 00:39:40;;;;;;;31.70;17.13;;;;;;;8.28;100.00;102377.91;5115544;28;20534;-93
2023/04/17 00:42:09;;;;;;;36.83;17.85;;;;;;;8.32;100.00;102394.69;5082803;28;20027;-93
2023/04/17 00:44:44;;;;;;;;;;;;;;;;;;;;;
2023/04/17 00:47:14;;;;;;;35.80;17.77;;;;;;;8.11;100.00;102387.00;5117875;28;20031;-92
2023/04/17 00:49:52;;;;;;;38.90;18.17;;;;;;;8.10;100.00;102385.28;5115891;28;20085;-93
2023/04/17 00:52:33;;;;;;;32.13;17.83;;;;;;;8.11;100.00;102377.00;5119171;28;20027;-92
2023/04/17 00:54:59;;;;;;;33.40;18.00;;;;;;;8.12;100.00;102388.66;5119016;28;20064;-92
2023/04/17 00:57:25;;;;;;;35.40;17.93;;;;;;;8.17;100.00;102380.94;5116938;28;20379;-92
2023/04/17 00:59:54;;;;;;;36.00;18.08;;;;;;;8.23;100.00;102396.50;5115948;28;20475;-93
2023/04/17 01:02:26;;;;;;;31.92;17.30;;;;;;;8.15;100.00;102372.97;5116028;28;20031;-94
2023/04/17 01:04:54;;;;;;;32.65;17.40;;;;;;;8.17;100.00;102387.16;5117294;28;20030;-92
2023/04/17 01:07:33;;;;;;;29.17;16.20;;;;;;;8.17;100.00;102381.75;5116052;28;20067;-92
2023/04/17 01:09:58;;;;;;;33.58;17.23;;;;;;;8.12;100.00;102377.84;5115576;28;20034;-93
2023/04/17 01:12:28;;;;;;;32.47;16.65;;;;;;;8.16;100.00;102387.34;5115737;28;20031;-93
2023/04/17 01:15:01;;;;;;;31.27;16.17;;;;;;;8.17;100.00;102391.75;5116016;28;20433;-92
2023/04/17 01:17:35;;;;;;;29.58;15.30;;;;;;;8.09;100.00;102381.75;5099135;28;20422;-92
2023/04/17 01:20:10;;;;;;;28.92;16.25;;;;;;;8.04;100.00;102379.50;5116836;28;20031;-93
2023/04/17 01:22:39;;;;;;;31.88;17.17;;;;;;;8.07;100.00;102383.75;5115184;28;20027;-92
2023/04/17 01:25:07;;;;;;;32.95;16.35;;;;;;;8.11;100.00;102390.53;5114391;28;20048;-91
2023/04/17 01:27:37;;;;;;;31.10;16.33;;;;;;;8.13;100.00;102401.19;5116564;28;20040;-93
2023/04/17 01:30:20;;;;;;;30.15;15.80;;;;;;;8.10;100.00;102390.69;5115434;28;20499;-93
2023/04/17 01:32:47;;;;;;;32.60;16.92;;;;;;;8.05;100.00;102385.78;5102245;28;20064;-92
2023/04/17 01:35:18;;;;;;;36.13;16.40;;;;;;;8.10;100.00;102396.94;5117443;28;20032;-93
2023/04/17 01:37:48;;;;;;;31.65;16.25;;;;;;;8.04;100.00;102389.47;5099252;28;20031;-92
2023/04/17 01:40:21;;;;;;;31.43;16.63;;;;;;;8.05;100.00;102383.91;5117065;28;20519;-93
2023/04/17 01:42:54;;;;;;;35.40;17.25;;;;;;;8.06;100.00;102388.31;5114827;28;20030;-93
2023/04/17 01:45:22;;;;;;;36.88;16.73;;;;;;;8.11;100.00;102387.81;5116904;28;20073;-93
2023/04/17 01:47:52;;;;;;;29.60;15.48;;;;;;;8.09;100.00;102392.56;5098247;28;20047;-93
2023/04/17 01:50:51;;;;;;;;;;;;;;;;;;;;;
2023/04/17 01:53:29;;;;;;;26.33;15.53;;;;;;;8.08;100.00;102378.16;5116940;28;20039;-92
2023/04/17 01:55:54;;;;;;;28.40;15.95;;;;;;;8.08;100.00;102391.69;5114858;28;20055;-92
2023/04/17 01:58:29;;;;;;;29.08;16.00;;;;;;;8.08;100.00;102382.75;5113852;28;20066;-93
2023/04/17 02:01:01;;;;;;;31.80;15.80;;;;;;;8.12;100.00;102394.94;5114848;28;20035;-92
2023/04/17 02:03:35;;;;;;;28.08;16.42;;;;;;;8.07;100.00;102392.72;5114576;28;20028;-92
2023/04/17 02:06:00;;;;;;;29.80;15.77;;;;;;;8.06;100.00;102388.31;5115338;28;20032;-92
2023/04/17 02:08:41;;;;;;;28.10;15.30;;;;;;;8.04;100.00;102392.19;5114779;28;20046;-92
2023/04/17 02:11:12;;;;;;;28.42;14.85;;;;;;;8.02;100.00;102388.78;5115124;28;20027;-92
2023/04/17 02:13:37;;;;;;;28.92;15.57;;;;;;;8.04;100.00;102394.88;5115505;28;20023;-93
2023/04/17 02:16:10;;;;;;;28.30;15.33;;;;;;;8.04;100.00;102397.59;5114891;28;20429;-93
2023/04/17 02:18:49;;;;;;;;;;;;;;;;;;;;;
2023/04/17 02:21:26;;;;;;;28.55;15.35;;;;;;;8.06;100.00;102409.94;5115960;28;20031;-92
2023/04/17 02:24:02;;;;;;;26.83;15.35;;;;;;;7.98;100.00;102400.94;5099545;28;20091;-93
2023/04/17 02:26:45;;;;;;;26.98;14.85;;;;;;;7.92;100.00;102391.59;5116145;28;20027;-93
2023/04/17 02:29:15;;;;;;;27.50;15.27;;;;;;;8.01;100.00;102403.31;5115627;28;20113;-93
2023/04/17 02:31:44;;;;;;;27.95;15.25;;;;;;;8.00;100.00;102405.19;5113733;28;20467;-94
2023/04/17 02:34:25;;;;;;;30.02;15.68;;;;;;;8.01;100.00;102397.91;5097102;28;20043;-93
2023/04/17 02:36:55;;;;;;;32.17;15.80;;;;;;;8.01;100.00;102406.84;5114216;28;20032;-93
2023/04/17 02:39:30;;;;;;;26.70;15.07;;;;;;;7.92;100.00;102390.75;5097504;28;20101;-93
2023/04/17 02:42:01;;;;;;;28.42;14.77;;;;;;;7.90;100.00;102396.34;5114496;28;20027;-93
2023/04/17 02:44:39;;;;;;;28.98;15.32;;;;;;;7.86;100.00;102395.78;5114190;28;20142;-93
2023/04/17 02:47:07;;;;;;;27.00;15.30;;;;;;;7.91;100.00;102400.72;5081608;28;20494;-93
2023/04/17 02:49:40;;;;;;;29.08;16.27;;;;;;;7.91;100.00;102398.00;5114665;28;20049;-93
2023/04/17 02:52:09;;;;;;;28.52;15.50;;;;;;;7.93;100.00;102397.84;5113432;28;20448;-93
2023/04/17 02:54:35;;;;;;;30.13;15.98;;;;;;;7.94;100.00;102402.25;5108293;28;20074;-93
2023/04/17 02:57:03;;;;;;;35.63;16.60;;;;;;;7.86;100.00;102395.78;5114408;28;20055;-92
2023/04/17 02:59:36;;;;;;;33.05;17.15;;;;;;;7.88;100.00;102399.19;5112842;28;20506;-93
2023/04/17 03:02:13;;;;;;;35.55;16.60;;;;;;;7.87;100.00;102391.25;5113391;28;20084;-93
2023/04/17 03:04:49;;;;;;;35.38;17.00;;;;;;;7.97;100.00;102410.91;5113487;28;20122;-92
2023/04/17 03:07:27;;;;;;;32.78;17.40;;;;;;;7.89;100.00;102400.88;5114124;28;20039;-92
2023/04/17 03:09:52;;;;;;;36.13;17.02;;;;;;;7.89;100.00;102395.47;5098047;28;20063;-93
2023/04/17 03:12:18;;;;;;;34.87;16.93;;;;;;;7.96;100.00;102409.19;5116718;28;20363;-92
2023/04/17 03:14:46;;;;;;;38.03;17.88;;;;;;;7.90;100.00;102399.03;5116102;28;20387;-93
2023/04/17 03:17:21;;;;;;;34.60;18.00;;;;;;;7.90;100.00;102399.88;5097253;28;20130;-93
2023/04/17 03:19:46;;;;;;;36.53;18.25;;;;;;;7.95;100.00;102404.78;5115640;28;20039;-92
2023/04/17 03:22:15;;;;;;;37.53;18.15;;;;;;;7.89;100.00;102397.34;5118356;28;20371;-93
2023/04/17 03:24:45;;;;;;;33.83;17.02;;;;;;;7.89;100.00;102402.72;5116679;28;20059;-93
2023/04/17 03:27:13;;;;;;;38.03;18.38;;;;;;;7.91;100.00;102406.13;5100103;28;20031;-93
2023/04/17 03:29:47;;;;;;;39.35;17.95;;;;;;;7.88;100.00;102403.72;5117220;28;20031;-93
2023/04/17 03:32:17;;;;;;;40.33;18.85;;;;;;;7.85;100.00;102398.66;5117189;28;20019;-93
2023/04/17 03:34:50;;;;;;;39.35;19.08;;;;;;;7.89;100.00;102408.13;5116803;28;20134;-93
2023/04/17 03:37:15;;;;;;;34.50;17.30;;;;;;;7.91;100.00;102411.53;5084426;28;20521;-93
2023/04/17 03:39:48;;;;;;;41.17;18.92;;;;;;;7.90;100.00;102409.84;5117792;28;20023;-93
2023/04/17 03:42:17;;;;;;;42.42;18.75;;;;;;;7.85;100.00;102401.34;5117172;28;20027;-93
2023/04/17 03:44:45;;;;;;;39.07;18.70;;;;;;;7.80;100.00;102391.03;5118196;28;20031;-93
2023/04/17 03:47:21;;;;;;;;;;;;;;;;;;;;;
2023/04/17 03:49:52;;;;;;;36.75;18.35;;;;;;;7.78;100.00;102403.84;5101607;28;20438;-93
2023/04/17 03:52:35;;;;;;;38.92;18.65;;;;;;;7.80;100.00;102409.94;5117954;28;20038;-92
2023/04/17 03:55:01;;;;;;;39.25;18.55;;;;;;;7.77;100.00;102398.63;5116928;28;20031;-93
2023/04/17 03:57:39;;;;;;;39.37;18.17;;;;;;;7.72;100.00;102393.66;5116218;28;20034;-93
2023/04/17 04:00:11;;;;;;;40.90;17.38;;;;;;;7.80;100.00;102403.69;5116723;28;20027;-93
2023/04/17 04:02:43;;;;;;;34.80;16.90;;;;;;;7.77;100.00;102406.72;5083804;28;20036;-93
2023/04/17 04:05:14;;;;;;;36.30;18.47;;;;;;;7.80;100.00;102414.50;5099900;28;20036;-92
2023/04/17 04:07:42;;;;;;;31.25;17.58;;;;;;;7.81;100.00;102419.75;5100420;28;20040;-92
2023/04/17 04:10:11;;;;;;;38.70;18.02;;;;;;;7.70;100.00;102403.78;5116217;28;20034;-92
2023/04/17 04:12:42;;;;;;;31.60;16.98;;;;;;;7.67;100.00;102396.00;5118002;28;20027;-93
2023/04/17 04:15:10;;;;;;;39.67;17.65;;;;;;;7.71;100.00;102400.09;5115887;28;20076;-92
2023/04/17 04:17:58;;;;;;;34.60;17.43;;;;;;;7.67;100.00;102396.00;5116088;28;20038;-93
2023/04/17 04:20:31;;;;;;;38.83;18.17;;;;;;;7.72;100.00;102410.75;5100054;28;20364;-93
2023/04/17 04:22:59;;;;;;;35.17;17.98;;;;;;;7.65;100.00;102398.88;5100632;28;20038;-93
2023/04/17 04:25:31;;;;;;;37.05;18.02;;;;;;;7.64;100.00;102399.03;5117490;28;20055;-93
2023/04/17 04:28:08;;;;;;;35.17;17.75;;;;;;;7.63;100.00;102403.59;5099805;28;20055;-93
2023/04/17 04:30:49;;;;;;;37.43;17.87;;;;;;;7.67;100.00;102404.94;5115971;28;20468;-93
2023/04/17 04:33:38;;;;;;;36.90;18.30;;;;;;;7.66;100.00;102405.09;5116100;28;20058;-93
2023/04/17 04:36:05;;;;;;;31.45;16.90;;;;;;;7.76;100.00;102426.63;5116359;28;20410;-93
2023/04/17 04:38:36;;;;;;;33.72;17.80;;;;;;;7.72;100.00;102417.97;5099129;28;20031;-93
2023/04/17 04:41:04;;;;;;;35.72;17.98;;;;;;;7.67;100.00;102413.06;5096875;28;20126;-93
2023/04/17 04:43:41;;;;;;;34.07;17.40;;;;;;;7.73;100.00;102425.09;5115681;28;20024;-92
2023/04/17 04:46:09;;;;;;;33.72;17.33;;;;;;;7.72;100.00;102426.94;5115605;28;20038;-93
2023/04/17 04:48:40;;;;;;;35.17;17.73;;;;;;;7.67;100.00;102420.31;5115520;28;20072;-93
2023/04/17 04:51:19;;;;;;;36.67;17.42;;;;;;;7.66;100.00;102421.31;5094190;28;20035;-93
2023/04/17 04:53:48;;;;;;;33.10;17.98;;;;;;;7.68;100.00;102419.31;5100559;28;20030;-93
2023/04/17 04:56:16;;;;;;;33.97;17.37;;;;;;;7.70;100.00;102418.13;5115010;28;20429;-92
2023/04/17 04:58:42;;;;;;;36.40;18.70;;;;;;;7.72;100.00;102426.09;5115042;28;20425;-93
2023/04/17 05:01:10;;;;;;;37.30;18.20;;;;;;;7.74;100.00;102434.91;5098191;28;20035;-93
2023/04/17 05:03:43;;;;;;;36.67;19.10;;;;;;;7.62;100.00;102417.22;5098314;28;20387;-94
2023/04/17 05:06:12;;;;;;;34.88;16.70;;;;;;;7.69;100.00;102434.50;5114777;28;20135;-93
2023/04/17 05:12:09;;;;;;;35.38;18.08;;;;;;;7.67;100.00;102421.16;5022989;28;20045;-95
2023/04/17 05:14:39;;;;;;;32.60;17.48;;;;;;;7.73;100.00;102441.28;5116193;28;20023;-95
2023/04/17 05:17:09;;;;;;;38.63;18.45;;;;;;;7.71;100.00;102436.06;5115533;28;20032;-94
2023/04/17 05:19:40;;;;;;;36.30;18.65;;;;;;;7.68;100.00;102440.94;5115977;28;20032;-95
2023/04/17 05:22:08;;;;;;;36.15;19.00;;;;;;;7.70;100.00;102438.91;5115597;28;20063;-96
2023/04/17 05:24:34;;;;;;;37.30;17.80;;;;;;;7.70;100.00;102439.75;5116053;28;20048;-93
2023/04/17 05:27:00;;;;;;;39.70;19.53;;;;;;;7.76;100.00;102454.50;5116097;28;20058;-95
2023/04/17 05:29:36;;;;;;;37.72;19.17;;;;;;;7.80;100.00;102444.22;5095641;28;20043;-92
2023/04/17 05:32:09;;;;;;;38.25;19.08;;;;;;;7.87;100.00;102451.53;5098408;28;20035;-94
2023/04/17 05:34:34;;;;;;;36.63;19.05;;;;;;;7.91;100.00;102452.06;5116906;28;20032;-93
2023/04/17 05:37:01;;;;;;;38.38;19.05;;;;;;;7.87;100.00;102437.19;5101321;28;20059;-90
2023/04/17 05:39:27;;;;;;;36.42;19.08;;;;;;;7.96;100.00;102454.28;5116049;28;20049;-91
2023/04/17 05:41:52;;;;;;;36.73;18.23;;;;;;;7.96;100.00;102451.56;5082419;28;20032;-93
2023/04/17 05:44:22;;;;;;;39.43;18.93;;;;;;;7.89;100.00;102445.97;5115459;28;20101;-92
2023/04/17 05:46:50;;;;;;;38.00;19.55;;;;;;;7.95;100.00;102456.16;5115782;28;20620;-91
2023/04/17 05:49:16;;;;;;;36.85;18.83;;;;;;;7.92;100.00;102455.63;5097137;28;20042;-91
2023/04/17 05:51:41;;;;;;;38.30;19.53;;;;;;;7.98;100.00;102461.22;5114562;28;20396;-91
2023/04/17 05:54:09;;;;;;;38.58;20.13;;;;;;;7.96;100.00;102457.84;5114040;28;20035;-92
2023/04/17 05:56:42;;;;;;;37.97;18.70;;;;;;;7.98;100.00;102463.94;5113527;28;20119;-91
2023/04/17 05:59:08;;;;;;;38.77;19.43;;;;;;;7.97;100.00;102461.38;5114361;28;20038;-91
2023/04/17 06:01:37;;;;;;;37.05;19.60;;;;;;;8.00;100.00;102467.34;5114786;28;20441;-89
2023/04/17 06:04:03;;;;;;;39.97;19.80;;;;;;;7.99;100.00;102456.69;5113075;28;20378;-90
2023/04/17 06:06:31;;;;;;;41.30;19.67;;;;;;;7.99;100.00;102454.00;5114199;28;20114;-90
2023/04/17 06:08:59;;;;;;;37.58;19.05;;;;;;;7.98;100.00;102457.69;5112611;28;20398;-91
2023/04/17 06:11:24;;;;;;;37.50;19.90;;;;;;;8.02;100.00;102461.78;5116020;28;20027;-90
2023/04/17 06:13:57;;;;;;;38.13;19.53;;;;;;;8.06;100.00;102468.53;5112937;28;20070;-90
2023/04/17 06:16:28;;;;;;;36.35;20.20;;;;;;;8.13;100.00;102479.59;5113747;28;20088;-90
2023/04/17 06:18:56;;;;;;;38.10;19.27;;;;;;;8.11;100.00;102473.50;5096871;28;20543;-90
2023/04/17 06:21:22;;;;;;;42.27;20.90;;;;;;;8.22;100.00;102481.31;5114330;28;20034;-90
2023/04/17 06:23:47;;;;;;;38.22;19.50;;;;;;;8.17;100.00;102478.25;5112821;28;20043;-90
2023/04/17 06:26:18;;;;;;;42.83;20.43;;;;;;;8.24;100.00;102484.72;5112995;28;20379;-90
2023/04/17 06:28:44;;;;;;;35.67;18.65;;;;;;;8.17;100.00;102468.28;5112509;28;20027;-90
2023/04/17 06:31:12;;;;;;;37.50;19.27;;;;;;;8.20;100.00;102489.59;5112548;28;20595;-91
2023/04/17 06:33:40;;;;;;;45.03;20.48;;;;;;;8.25;100.00;102497.22;5112721;28;20494;-90
2023/04/17 06:36:17;;;;;;;41.60;20.08;;;;;;;8.26;100.00;102488.94;5096552;28;20032;-90
2023/04/17 06:38:54;;;;;;;42.67;20.40;;;;;;;8.35;100.00;102499.81;5114168;28;20038;-91
2023/04/17 06:41:49;;;;;;;38.35;21.35;;;;;;;8.31;100.00;102487.63;5114437;28;20034;-91
2023/04/17 06:44:13;;;;;;;40.90;19.98;;;;;;;8.38;100.00;102499.50;5112148;28;20084;-90
2023/04/17 06:46:38;;;;;;;39.38;20.95;;;;;;;8.35;100.00;102491.72;5113844;28;20115;-91
2023/04/17 06:49:14;;;;;;;42.37;20.47;;;;;;;8.32;100.00;102489.34;5112767;28;20020;-91
2023/04/17 06:51:53;;;;;;;35.38;18.73;;;;;;;8.39;100.00;102495.81;5081135;28;20228;-91
2023/04/17 06:54:32;;;;;;;40.33;20.08;;;;;;;8.40;100.00;102498.34;5115670;28;20213;-92
2023/04/17 06:57:02;;;;;;;43.90;20.05;;;;;;;8.56;100.00;102507.56;5084380;28;20466;-95
2023/04/17 06:59:27;;;;;;;40.47;20.07;;;;;;;8.58;100.00;102514.53;5117207;28;20157;-93
2023/04/17 07:02:01;;;;;;;40.20;21.02;;;;;;;8.50;100.00;102495.53;5118473;28;20496;-93
2023/04/17 07:04:36;;;;;;;41.83;20.08;;;;;;;8.58;100.00;102508.28;5117550;28;20149;-93
2023/04/17 07:07:11;;;;;;;38.47;19.77;;;;;;;8.63;100.00;102513.19;5117804;28;20028;-93
2023/04/17 07:09:37;;;;;;;40.88;21.08;;;;;;;8.60;100.00;102504.38;5117610;28;20043;-94
2023/04/17 07:12:10;;;;;;;40.08;20.83;;;;;;;8.62;100.00;102509.63;5118169;28;20020;-94
2023/04/17 07:14:51;;;;;;;40.63;20.33;;;;;;;8.72;100.00;102523.03;5080867;28;20044;-93
2023/04/17 07:17:20;;;;;;;40.20;20.00;;;;;;;8.70;100.00;102516.97;5118213;27;20051;-93
2023/04/17 07:20:06;;;;;;;39.88;20.45;;;;;;;8.68;100.00;102514.41;5110006;28;20387;-93
2023/04/17 07:22:34;;;;;;;40.72;19.90;;;;;;;8.78;100.00;102523.25;5117936;28;20514;-93
2023/04/17 07:25:15;;;;;;;39.92;20.50;;;;;;;8.77;100.00;102526.97;5117192;28;20058;-93
2023/04/17 07:27:51;;;;;;;39.80;19.83;;;;;;;8.80;100.00;102535.75;5100340;28;20042;-93
2023/04/17 07:30:21;;;;;;;47.78;21.70;;;;;;;8.74;100.00;102532.69;5117680;28;20387;-93
2023/04/17 07:32:59;;;;;;;40.17;20.20;;;;;;;8.80;100.00;102536.63;5117707;28;20032;-93
2023/04/17 07:35:33;;;;;;;43.17;20.85;;;;;;;8.84;100.00;102535.25;5100975;28;20032;-93
2023/04/17 07:38:02;;;;;;;38.28;19.98;;;;;;;8.94;100.00;102530.56;5117022;28;20024;-94
2023/04/17 07:40:35;;;;;;;41.23;20.20;;;;;;;9.02;100.00;102528.91;5118290;28;20053;-93
2023/04/17 07:43:08;;;;;;;39.75;19.50;;;;;;;9.12;100.00;102538.63;5117626;28;20024;-94
2023/04/17 07:45:35;;;;;;;43.28;20.83;;;;;;;9.29;100.00;102536.78;5100845;28;20070;-93
2023/04/17 07:48:01;;;;;;;36.85;19.60;;;;;;;9.44;100.00;102534.28;5117765;28;20043;-93
2023/04/17 07:50:27;;;;;;;37.37;20.40;;;;;;;9.46;100.00;102534.09;5100009;28;20032;-94
2023/04/17 07:52:52;;;;;;;40.88;19.88;;;;;;;9.55;100.00;102533.13;5116775;28;20015;-94
2023/04/17 07:55:20;;;;;;;39.37;20.57;;;;;;;9.73;100.00;102535.69;5099263;28;20027;-93
2023/04/17 07:57:56;;;;;;;38.75;19.70;;;;;;;9.91;100.00;102530.09;5116252;28;20030;-93
2023/04/17 08:00:46;;;;;;;39.10;19.92;;;;;;;9.97;100.00;102537.53;5100120;28;20032;-91
2023/04/17 08:03:15;;;;;;;38.55;20.67;;;;;;;9.90;100.00;102541.94;5116693;28;20031;-92
2023/04/17 08:05:43;;;;;;;35.90;20.50;;;;;;;9.84;100.00;102537.19;5099158;28;20039;-92
2023/04/17 08:08:18;;;;;;;39.75;21.85;;;;;;;10.00;100.00;102553.47;5115812;28;20015;-92
2023/04/17 08:10:54;;;;;;;42.03;21.65;;;;;;;10.25;100.00;102549.91;5099700;28;20089;-92
2023/04/17 08:13:20;;;;;;;37.63;21.33;;;;;;;10.29;98.55;102527.69;5116699;28;20084;-92
2023/04/17 08:15:57;;;;;;;35.70;19.93;;;;;;;10.45;97.85;102544.97;5115787;28;20460;-92
2023/04/17 08:18:23;;;;;;;36.30;20.20;;;;;;;10.82;96.54;102543.50;5116338;28;20055;-92
2023/04/17 08:20:48;;;;;;;34.30;19.60;;;;;;;11.08;94.89;102548.66;5115626;28;20035;-92
2023/04/17 08:23:14;;;;;;;33.45;18.77;;;;;;;11.21;93.14;102548.09;5098538;28;20092;-93
2023/04/17 08:25:39;;;;;;;30.27;18.27;;;;;;;11.21;92.40;102545.38;5098548;28;20063;-92
2023/04/17 08:28:07;;;;;;;30.73;17.77;;;;;;;11.14;91.89;102539.78;5115778;28;20061;-92
2023/04/17 08:30:33;;;;;;;33.08;18.08;;;;;;;11.36;92.01;102549.00;5115488;28;20035;-92
2023/04/17 08:33:04;;;;;;;30.60;18.37;;;;;;;11.54;90.32;102542.44;5115444;28;20012;-93
2023/04/17 08:35:39;;;;;;;28.42;17.85;;;;;;;11.80;88.32;102544.81;5115292;28;20028;-92
2023/04/17 08:38:15;;;;;;;35.25;19.40;;;;;;;11.74;86.94;102542.81;5099117;28;20128;-92
2023/04/17 08:40:41;;;;;;;30.45;17.65;;;;;;;11.67;86.64;102544.56;5115411;28;20024;-92
2023/04/17 08:43:20;;;;;;;32.15;17.95;;;;;;;11.84;87.69;102543.41;5116781;28;20112;-92
2023/04/17 08:45:52;;;;;;;27.57;16.97;;;;;;;11.92;86.69;102551.50;5115349;28;20070;-93
2023/04/17 08:48:22;;;;;;;29.23;17.27;;;;;;;11.89;86.10;102538.25;5114826;28;20065;-93
2023/04/17 08:50:54;;;;;;;30.40;17.23;;;;;;;11.91;84.82;102544.38;5115456;28;20119;-93
2023/04/17 08:53:45;;;;;;;28.05;17.10;;;;;;;12.11;86.69;102552.06;5116082;28;20100;-93
2023/04/17 08:56:21;;;;;;;29.75;17.42;;;;;;;11.99;84.82;102540.75;5098543;28;20039;-92
2023/04/17 08:58:54;;;;;;;31.13;17.93;;;;;;;12.16;85.18;102537.91;5115860;28;20137;-93
2023/04/17 09:01:35;;;;;;;31.25;17.40;;;;;;;12.20;84.45;102528.34;5115586;28;20028;-93
2023/04/17 09:04:07;;;;;;;27.00;17.13;;;;;;;12.26;83.24;102541.19;5115736;28;20085;-92
2023/04/17 09:06:55;;;;;;;30.23;17.40;;;;;;;12.40;84.09;102548.53;5116152;28;20035;-92
2023/04/17 09:09:25;;;;;;;29.80;17.40;;;;;;;12.70;82.60;102561.34;5115663;28;20044;-92
2023/04/17 09:12:15;;;;;;;27.93;17.20;;;;;;;12.72;82.79;102542.91;5114330;28;20047;-92
2023/04/17 09:14:51;;;;;;;31.67;17.40;;;;;;;12.63;81.29;102551.16;5114895;28;20028;-93
2023/04/17 09:17:20;;;;;;;29.35;18.38;;;;;;;12.66;80.54;102540.94;5096767;28;20039;-93
2023/04/17 09:20:10;;;;;;;29.88;18.05;;;;;;;12.83;81.98;102537.00;5097964;28;20027;-92
2023/04/17 09:22:46;;;;;;;31.45;18.50;;;;;;;12.81;79.60;102544.50;5114704;28;20055;-93
2023/04/17 09:25:22;;;;;;;29.10;17.30;;;;;;;13.07;79.90;102552.19;5097562;28;20047;-92
2023/04/17 09:27:50;;;;;;;26.77;17.85;;;;;;;13.35;77.78;102562.41;5114446;28;20073;-91
2023/04/17 09:30:26;;;;;;;30.58;18.10;;;;;;;13.69;77.81;102558.97;5114703;28;20055;-92
2023/04/17 09:33:04;;;;;;;29.98;17.90;;;;;;;13.90;76.62;102551.00;5097008;28;20030;-91
2023/04/17 09:35:36;;;;;;;29.40;18.35;;;;;;;14.11;74.66;102559.16;5114173;28;20482;-91
2023/04/17 09:38:07;;;;;;;28.53;17.97;;;;;;;14.26;73.28;102533.66;5114889;28;20060;-91
2023/04/17 09:40:44;;;;;;;29.40;17.52;;;;;;;14.39;72.39;102541.94;5115404;28;20032;-91
2023/04/17 09:43:12;;;;;;;30.00;18.17;;;;;;;14.44;71.78;102536.72;5114045;28;20365;-92
2023/04/17 09:45:40;;;;;;;29.10;18.35;;;;;;;14.41;70.76;102547.19;5098225;28;20463;-92
2023/04/17 09:48:13;;;;;;;29.50;18.30;;;;;;;14.62;71.55;102549.88;5115102;28;20115;-92
2023/04/17 09:50:41;;;;;;;30.50;18.60;;;;;;;15.00;70.21;102552.19;5114978;28;20031;-92
2023/04/17 09:53:07;;;;;;;30.55;18.38;;;;;;;15.13;67.55;102543.19;5097000;28;20024;-91
2023/04/17 09:55:33;;;;;;;30.92;18.35;;;;;;;15.28;67.56;102532.13;5113724;28;20050;-92
2023/04/17 09:58:07;;;;;;;35.40;17.95;;;;;;;15.63;66.69;102544.81;5114654;28;20084;-92
2023/04/17 10:00:36;;;;;;;27.15;17.45;;;;;;;15.91;64.52;102534.53;5096872;28;20097;-92
2023/04/17 10:03:05;;;;;;;28.63;18.67;;;;;;;16.41;64.14;102536.81;5113666;28;20028;-92
2023/04/17 10:05:37;;;;;;;27.60;17.42;;;;;;;16.62;62.59;102548.56;5113699;28;20424;-92
2023/04/17 10:08:12;;;;;;;30.52;19.10;;;;;;;16.42;61.71;102545.91;5114169;28;20081;-92
2023/04/17 10:10:40;;;;;;;26.88;17.58;;;;;;;16.42;62.51;102537.69;5113079;28;20463;-92
2023/04/17 10:13:16;;;;;;;27.70;17.73;;;;;;;16.63;62.72;102526.44;5114924;28;20031;-92
2023/04/17 10:16:01;;;;;;;25.13;17.17;;;;;;;16.96;61.75;102524.66;5113441;28;20036;-92
2023/04/17 10:18:57;;;;;;;25.38;17.48;;;;;;;17.06;59.55;102516.81;5114365;28;20111;-91
2023/04/17 10:21:36;;;;;;;25.25;16.67;;;;;;;17.09;58.71;102521.88;5113810;28;20047;-92
2023/04/17 10:24:26;;;;;;;24.08;17.25;;;;;;;17.16;60.56;102527.34;5113521;28;20056;-92
2023/04/17 10:31:02;;;;;;;27.10;17.37;;;;;;;17.60;58.90;102533.81;5114553;28;20096;-92
2023/04/17 10:33:41;;;;;;;29.90;17.13;;;;;;;17.38;56.03;102518.75;5113788;28;20040;-92
2023/04/17 10:36:39;;;;;;;28.80;16.05;;;;;;;17.73;59.21;102537.53;5112635;28;20043;-93
2023/04/17 10:39:17;;;;;;;25.65;16.60;;;;;;;18.06;55.56;102524.41;5112687;28;20042;-92
2023/04/17 10:42:04;;;;;;;24.25;16.42;;;;;;;18.34;56.89;102520.34;5114186;28;20111;-92
2023/04/17 10:44:47;;;;;;;28.83;17.50;;;;;;;18.95;53.50;102531.53;5113816;28;20039;-92
2023/04/17 10:47:19;;;;;;;25.83;16.95;;;;;;;19.09;52.22;102530.28;5112654;28;20115;-92
2023/04/17 10:50:02;;;;;;;;;;;;;;;;;;;;;
2023/04/17 10:53:18;;;;;;;27.63;16.88;;;;;;;20.22;49.21;102510.31;5114953;28;20020;-92
2023/04/17 10:55:38;;;;;;;;;;;;;;;;;;;;;
2023/04/17 10:58:26;;;;;;;26.80;17.80;;;;;;;20.27;49.16;102502.19;5114725;28;20038;-92
2023/04/17 11:00:55;;;;;;;23.77;15.60;;;;;;;20.06;45.59;102506.38;5112683;28;20043;-92
2023/04/17 11:03:24;;;;;;;22.83;15.50;;;;;;;19.93;45.94;102506.59;5114122;28;20027;-92
2023/04/17 11:05:53;;;;;;;21.95;16.35;;;;;;;20.28;45.08;102505.78;5114155;28;20110;-92
2023/04/17 11:08:19;;;;;;;24.58;16.83;;;;;;;21.05;44.54;102493.63;5113327;28;20031;-92
2023/04/17 11:10:46;;;;;;;26.70;16.67;;;;;;;21.51;42.67;102488.13;5112910;28;20140;-92
2023/04/17 11:13:21;;;;;;;26.52;17.20;;;;;;;22.20;41.98;102498.06;5112301;28;20024;-92
2023/04/17 11:15:52;;;;;;;27.70;16.88;;;;;;;22.18;40.56;102490.03;5113269;28;20032;-93
2023/04/17 11:18:21;;;;;;;24.48;17.48;;;;;;;22.29;40.95;102501.25;5114033;28;20027;-94
2023/04/17 11:20:48;;;;;;;25.10;17.07;;;;;;;22.46;39.49;102507.59;5113654;28;20374;-94
2023/04/17 11:23:18;;;;;;;24.98;17.10;;;;;;;23.19;39.30;102495.50;5113922;28;20024;-92
2023/04/17 11:25:46;;;;;;;22.73;16.42;;;;;;;24.86;35.89;102495.28;5112121;28;20082;-92
2023/04/17 11:28:41;;;;;;;27.15;17.10;;;;;;;26.13;36.41;102487.38;5113895;28;20058;-92
2023/04/17 11:31:26;;;;;;;25.05;16.50;;;;;;;27.04;33.14;102487.28;5112865;28;20415;-92
2023/04/17 11:33:52;;;;;;;21.80;15.03;;;;;;;28.91;28.75;102476.81;5097258;28;20104;-93
2023/04/17 11:36:23;;;;;;;20.73;14.93;;;;;;;30.70;26.65;102485.97;5112438;28;20459;-93
2023/04/17 11:38:51;;;;;;;21.50;15.10;;;;;;;32.49;24.28;102478.91;5113851;28;20039;-92
2023/04/17 11:41:28;;;;;;;20.10;14.73;;;;;;;34.23;22.36;102475.13;5117066;28;20055;-93
2023/04/17 11:43:56;;;;;;;20.85;16.23;;;;;;;34.06;22.52;102473.22;5116083;28;20032;-93
2023/04/17 11:46:27;;;;;;;25.40;17.25;;;;;;;31.70;23.06;102472.97;5098562;28;20127;-93
2023/04/17 11:48:53;;;;;;;22.50;16.40;;;;;;;29.90;24.50;102463.75;5116174;28;20058;-93
2023/04/17 11:51:18;;;;;;;25.03;16.13;;;;;;;30.71;24.33;102461.56;5116062;28;20023;-93
2023/04/17 11:53:52;;;;;;;25.40;16.90;;;;;;;31.51;24.42;102470.34;5115771;28;20084;-93